Time;durP1;ratioP1;P1;durP2;ratioP2;P2;SDS_P1;SDS_P2;PMS_P1;PMS_P2;Temp;Humidity;BMP_temperature;BMP_pressure;BME280_temperature;BME280_humidity;BME280_pressure;Samples;Min_cycle;Max_cycle;Signal;HPM_P1;HPM_P2
2022/10/28 00:02:45;;;;;;;2.10;1.63;;;;;;;14.63;100.00;101705.84;6224146;28;20505;-72
2022/10/28 00:05:48;;;;;;;2.92;1.27;;;;;;;14.65;100.00;101710.09;6223689;28;20406;-72
2022/10/28 00:08:50;;;;;;;2.22;1.48;;;;;;;14.65;100.00;101709.25;6224301;28;20050;-72
2022/10/28 00:11:52;;;;;;;8.65;1.55;;;;;;;14.61;100.00;101719.16;6223785;28;20057;-72
2022/10/28 00:14:53;;;;;;;4.25;1.60;;;;;;;14.61;100.00;101718.28;6223657;28;20050;-72
2022/10/28 00:17:54;;;;;;;2.58;1.50;;;;;;;14.61;100.00;101719.16;6223768;28;20057;-72
2022/10/28 00:21:01;;;;;;;3.20;1.60;;;;;;;14.65;100.00;101722.47;6223519;28;20060;-72
2022/10/28 00:24:03;;;;;;;6.22;1.60;;;;;;;14.67;100.00;101724.13;6223292;28;20147;-72
2022/10/28 00:27:05;;;;;;;3.47;1.50;;;;;;;14.67;100.00;101726.75;6223899;28;20516;-72
2022/10/28 00:30:07;;;;;;;1.55;1.30;;;;;;;14.65;100.00;101731.28;6223097;28;20060;-72
2022/10/28 00:33:08;;;;;;;9.20;1.70;;;;;;;14.65;100.00;101725.13;6223672;28;20536;-72
2022/10/28 00:36:14;;;;;;;2.40;1.58;;;;;;;14.63;100.00;101730.50;6223411;28;20046;-72
2022/10/28 00:39:18;;;;;;;3.75;1.65;;;;;;;14.62;100.00;101727.94;6222766;28;20050;-72
2022/10/28 00:42:22;;;;;;;2.72;1.25;;;;;;;14.63;100.00;101719.94;6223022;28;20053;-72
2022/10/28 00:45:23;;;;;;;4.43;1.40;;;;;;;14.62;100.00;101725.28;6223008;28;20054;-72
2022/10/28 00:48:24;;;;;;;6.35;1.48;;;;;;;14.62;100.00;101726.13;6223328;28;20061;-72
2022/10/28 00:51:31;;;;;;;3.28;1.15;;;;;;;14.61;100.00;101721.78;6222602;28;20433;-72
2022/10/28 00:54:33;;;;;;;2.05;1.40;;;;;;;14.65;100.00;101714.53;6222962;28;20049;-72
2022/10/28 00:57:38;;;;;;;3.05;1.60;;;;;;;14.65;100.00;101710.09;6222855;28;20049;-72
2022/10/28 01:00:39;;;;;;;4.05;1.73;;;;;;;14.66;100.00;101713.59;6222671;28;20050;-72
2022/10/28 01:03:41;;;;;;;2.75;1.42;;;;;;;14.66;100.00;101695.06;6222649;28;20045;-72
2022/10/28 01:06:45;;;;;;;2.15;1.23;;;;;;;14.66;100.00;101684.50;6222886;28;20050;-72
2022/10/28 01:09:47;;;;;;;6.97;1.63;;;;;;;14.63;100.00;101682.03;6222317;28;20049;-72
2022/10/28 01:13:02;;;;;;;3.13;1.80;;;;;;;14.60;100.00;101651.31;6222604;28;20120;-72
2022/10/28 01:16:13;;;;;;;2.40;1.05;;;;;;;14.59;100.00;101619.66;6222241;28;20053;-72
2022/10/28 01:19:50;;;;;;;3.22;1.83;;;;;;;14.59;100.00;101661.97;6222700;28;20525;-72
2022/10/28 01:22:58;;;;;;;4.25;1.92;;;;;;;14.64;100.00;101659.94;6222472;28;20057;-72
2022/10/28 01:26:32;;;;;;;4.22;1.52;;;;;;;14.67;100.00;101683.53;6222003;28;20409;-72
2022/10/28 01:30:02;;;;;;;3.70;1.80;;;;;;;14.73;100.00;101674.44;6192062;28;20061;-72
2022/10/28 01:33:10;;;;;;;5.80;1.67;;;;;;;14.75;100.00;101665.47;6222807;28;20060;-72
2022/10/28 01:36:18;;;;;;;3.13;1.65;;;;;;;14.71;100.00;101671.88;6221888;28;20050;-72
2022/10/28 01:39:29;;;;;;;4.05;1.80;;;;;;;14.67;100.00;101678.25;6222568;28;20045;-72
2022/10/28 01:42:36;;;;;;;3.15;1.55;;;;;;;14.63;100.00;101672.31;6221820;28;20057;-72
2022/10/28 01:45:44;;;;;;;4.07;1.67;;;;;;;14.62;100.00;101662.63;6221860;28;20553;-72
2022/10/28 01:48:53;;;;;;;5.05;1.90;;;;;;;14.57;100.00;101658.56;6222006;28;20057;-72
2022/10/28 01:52:00;;;;;;;5.13;1.85;;;;;;;14.56;100.00;101652.41;6221901;28;20049;-72
2022/10/28 01:55:06;;;;;;;2.50;1.17;;;;;;;14.54;100.00;101643.72;6221689;28;20046;-72
2022/10/28 01:58:11;;;;;;;3.75;1.70;;;;;;;14.50;100.00;101644.81;6222174;28;20046;-72
2022/10/28 02:01:14;;;;;;;6.65;1.75;;;;;;;14.49;100.00;101629.91;6221571;28;20053;-72
2022/10/28 02:04:17;;;;;;;3.08;1.42;;;;;;;14.45;100.00;101634.47;6221560;28;20054;-72
2022/10/28 02:07:18;;;;;;;3.38;1.38;;;;;;;14.44;100.00;101627.47;6221966;28;20054;-72
2022/10/28 02:10:26;;;;;;;4.45;2.05;;;;;;;14.42;100.00;101624.06;6221270;28;20062;-72
2022/10/28 02:13:38;;;;;;;9.00;1.27;;;;;;;14.40;100.00;101623.28;6221979;28;20049;-72
2022/10/28 02:16:48;;;;;;;2.53;1.42;;;;;;;14.39;100.00;101620.72;6221293;28;20042;-72
2022/10/28 02:19:58;;;;;;;3.70;2.08;;;;;;;14.38;100.00;101619.00;6221574;28;20053;-72
2022/10/28 02:23:11;;;;;;;2.63;1.30;;;;;;;14.37;100.00;101618.16;6221505;28;20053;-72
2022/10/28 02:26:17;;;;;;;3.38;1.50;;;;;;;14.37;100.00;101623.47;6221508;28;20078;-73
2022/10/28 02:29:26;;;;;;;5.38;1.98;;;;;;;14.33;100.00;101613.13;6221771;28;20053;-72
2022/10/28 02:32:33;;;;;;;3.53;1.50;;;;;;;14.28;100.00;101613.38;6221460;28;20490;-72
2022/10/28 02:35:42;;;;;;;3.92;1.60;;;;;;;14.22;100.00;101608.44;6221297;28;20296;-72
2022/10/28 02:38:47;;;;;;;4.35;1.85;;;;;;;14.16;100.00;101609.59;6221587;28;20054;-72
2022/10/28 02:41:54;;;;;;;4.20;1.92;;;;;;;14.11;100.00;101616.09;6219517;28;20046;-72
2022/10/28 02:45:01;;;;;;;3.65;1.33;;;;;;;14.05;100.00;101612.00;6221126;28;20060;-72
2022/10/28 02:48:06;;;;;;;6.60;1.75;;;;;;;13.98;100.00;101607.97;6221505;28;20490;-72
2022/10/28 02:51:12;;;;;;;4.63;1.63;;;;;;;13.90;100.00;101607.53;6220902;28;20429;-72
2022/10/28 02:54:16;;;;;;;3.38;1.60;;;;;;;13.85;100.00;101612.19;6220972;28;20422;-72
2022/10/28 02:57:21;;;;;;;2.53;1.65;;;;;;;13.78;100.00;101606.41;6221291;28;20042;-72
2022/10/28 03:00:23;;;;;;;2.10;1.52;;;;;;;13.73;100.00;101604.94;6221361;28;20050;-72
2022/10/28 03:03:25;;;;;;;4.13;1.83;;;;;;;13.66;100.00;101596.47;6226023;28;20060;-72
2022/10/28 03:06:27;;;;;;;3.85;1.65;;;;;;;13.61;100.00;101594.06;6225280;28;20485;-72
2022/10/28 03:09:29;;;;;;;2.13;1.60;;;;;;;13.56;100.00;101588.19;6225557;28;20502;-72
2022/10/28 03:12:30;;;;;;;5.80;1.92;;;;;;;13.53;100.00;101584.84;6225045;28;20077;-72
2022/10/28 03:15:32;;;;;;;2.65;1.75;;;;;;;13.48;100.00;101573.66;6225334;28;20050;-72
2022/10/28 03:18:33;;;;;;;4.07;2.10;;;;;;;13.42;100.00;101569.56;6225279;28;20512;-72
2022/10/28 03:21:36;;;;;;;3.38;2.08;;;;;;;13.39;100.00;101559.16;6241797;22;20046;-79
2022/10/28 03:24:37;;;;;;;3.60;1.73;;;;;;;13.35;100.00;101560.25;6224976;28;20419;-79
2022/10/28 03:27:39;;;;;;;3.22;1.63;;;;;;;13.34;100.00;101559.38;6246622;28;20048;-79
2022/10/28 03:30:42;;;;;;;4.82;2.10;;;;;;;13.29;100.00;101560.56;6239350;28;20104;-80
2022/10/28 03:33:43;;;;;;;3.72;1.95;;;;;;;13.29;100.00;101557.94;6225403;28;20049;-79
2022/10/28 03:36:46;;;;;;;2.60;1.60;;;;;;;13.26;100.00;101558.94;6225655;28;20052;-79
2022/10/28 03:39:47;;;;;;;3.25;1.75;;;;;;;13.25;100.00;101567.78;6225195;28;20049;-79
2022/10/28 03:42:49;;;;;;;5.32;1.90;;;;;;;13.23;100.00;101555.63;6225695;28;20680;-79
2022/10/28 03:45:50;;;;;;;4.95;2.33;;;;;;;13.21;100.00;101566.19;6224874;28;20054;-79
2022/10/28 03:48:52;;;;;;;2.88;2.03;;;;;;;13.19;100.00;101561.00;6225534;28;20050;-79
2022/10/28 03:51:54;;;;;;;2.33;1.55;;;;;;;13.17;100.00;101562.88;6224535;28;20054;-79
2022/10/28 03:54:56;;;;;;;6.28;2.38;;;;;;;13.15;100.00;101558.59;6224860;28;20053;-77
2022/10/28 03:58:00;;;;;;;6.10;1.88;;;;;;;13.09;100.00;101553.66;6225295;28;20076;-79
2022/10/28 04:01:02;;;;;;;6.07;2.17;;;;;;;13.09;100.00;101556.28;6224822;28;20049;-79
2022/10/28 04:04:03;;;;;;;6.55;1.98;;;;;;;13.08;100.00;101554.56;6225107;28;20045;-79
2022/10/28 04:07:07;;;;;;;2.75;2.03;;;;;;;13.05;100.00;101549.47;6225073;28;20046;-79
2022/10/28 04:10:09;;;;;;;2.28;1.70;;;;;;;13.00;100.00;101539.13;6225893;28;20054;-78
2022/10/28 04:13:10;;;;;;;4.30;2.10;;;;;;;12.94;100.00;101544.69;6226575;28;20046;-78
2022/10/28 04:16:12;;;;;;;6.35;1.90;;;;;;;12.90;100.00;101544.03;6226278;28;20053;-78
2022/10/28 04:19:13;;;;;;;5.15;2.10;;;;;;;12.89;100.00;101554.63;6226731;28;20057;-78
2022/10/28 04:22:16;;;;;;;7.95;2.47;;;;;;;12.88;100.00;101553.78;6225256;28;20057;-78
2022/10/28 04:25:17;;;;;;;6.32;2.28;;;;;;;12.87;100.00;101548.59;6225992;28;20050;-79
2022/10/28 04:28:19;;;;;;;8.23;2.33;;;;;;;12.84;100.00;101548.75;6226108;28;20045;-79
2022/10/28 04:31:20;;;;;;;3.55;1.80;;;;;;;12.84;100.00;101554.00;6225771;28;20101;-78
2022/10/28 04:34:22;;;;;;;4.57;2.17;;;;;;;12.82;100.00;101543.56;6226190;28;20064;-78
2022/10/28 04:37:24;;;;;;;6.68;1.73;;;;;;;12.81;100.00;101536.56;6225983;28;20054;-78
2022/10/28 04:40:26;;;;;;;3.88;1.83;;;;;;;12.81;100.00;101533.94;6224984;28;20049;-78
2022/10/28 04:43:27;;;;;;;4.45;2.33;;;;;;;12.79;100.00;101540.19;6225544;28;20046;-78
2022/10/28 04:46:29;;;;;;;5.10;2.92;;;;;;;12.77;100.00;101526.25;6225071;28;20057;-79
2022/10/28 04:49:30;;;;;;;2.65;1.30;;;;;;;12.76;100.00;101527.16;6225117;28;20057;-79
2022/10/28 04:52:33;;;;;;;6.63;2.17;;;;;;;12.73;100.00;101528.19;6224016;28;20061;-79
2022/10/28 04:55:34;;;;;;;1.90;1.50;;;;;;;12.75;100.00;101531.59;6223601;28;20410;-79
2022/10/28 04:58:35;;;;;;;6.63;2.00;;;;;;;12.77;100.00;101523.63;6224185;28;20079;-79
2022/10/28 05:01:37;;;;;;;6.32;2.03;;;;;;;12.80;100.00;101526.06;6223807;28;20077;-78
2022/10/28 05:04:38;;;;;;;5.00;2.13;;;;;;;12.79;100.00;101514.69;6232670;28;20053;-78
2022/10/28 05:07:41;;;;;;;4.00;2.03;;;;;;;12.74;100.00;101503.50;6248829;28;20076;-79
2022/10/28 05:10:44;;;;;;;3.42;1.80;;;;;;;12.75;100.00;101501.72;6245531;28;20428;-78
2022/10/28 05:13:45;;;;;;;2.67;1.88;;;;;;;12.71;100.00;101501.00;6239572;28;20095;-78
2022/10/28 05:16:47;;;;;;;4.47;2.67;;;;;;;12.67;100.00;101500.34;6248053;28;20424;-79
2022/10/28 05:19:48;;;;;;;3.75;1.63;;;;;;;12.69;100.00;101501.09;6243874;28;20061;-78
2022/10/28 05:22:53;;;;;;;5.68;2.90;;;;;;;12.68;100.00;101498.56;6248643;28;20079;-79
2022/10/28 05:25:55;;;;;;;5.97;2.67;;;;;;;12.66;100.00;101488.06;6246148;28;20045;-78
2022/10/28 05:28:56;;;;;;;4.78;2.13;;;;;;;12.64;100.00;101495.22;6247815;28;20057;-78
2022/10/28 05:31:57;;;;;;;4.55;2.17;;;;;;;12.61;100.00;101498.00;6249551;28;20057;-78
2022/10/28 05:34:59;;;;;;;3.60;1.85;;;;;;;12.61;100.00;101499.78;6246437;28;20057;-78
2022/10/28 05:38:01;;;;;;;3.78;2.10;;;;;;;12.60;100.00;101503.34;6246292;28;20064;-78
2022/10/28 05:41:03;;;;;;;5.10;2.30;;;;;;;12.59;100.00;101504.28;6247109;28;20050;-78
2022/10/28 05:44:05;;;;;;;6.05;2.00;;;;;;;12.57;100.00;101503.50;6246204;28;20049;-78
2022/10/28 05:47:06;;;;;;;4.18;2.35;;;;;;;12.55;100.00;101502.72;6245165;28;20152;-78
2022/10/28 05:50:08;;;;;;;4.55;2.05;;;;;;;12.51;100.00;101504.66;6244897;28;20053;-78
2022/10/28 05:53:11;;;;;;;3.70;2.25;;;;;;;12.50;100.00;101499.47;6246337;28;20050;-77
2022/10/28 05:56:13;;;;;;;5.93;3.03;;;;;;;12.47;100.00;101503.09;6245862;28;20408;-78
2022/10/28 05:59:14;;;;;;;8.45;2.92;;;;;;;12.46;100.00;101498.75;6246589;28;20057;-78
2022/10/28 06:02:15;;;;;;;11.60;2.40;;;;;;;12.42;100.00;101498.03;6245695;28;20053;-79
2022/10/28 06:05:17;;;;;;;4.28;2.25;;;;;;;12.41;100.00;101495.50;6245684;28;20041;-78
2022/10/28 06:08:20;;;;;;;4.57;2.08;;;;;;;12.36;100.00;101501.00;6246049;28;20052;-78
2022/10/28 06:11:21;;;;;;;6.40;2.78;;;;;;;12.35;100.00;101507.19;6245951;28;20046;-77
2022/10/28 06:14:23;;;;;;;5.65;2.22;;;;;;;12.33;100.00;101501.13;6246245;28;20056;-78
2022/10/28 06:17:25;;;;;;;2.85;1.92;;;;;;;12.31;100.00;101503.00;6246553;28;20429;-78
2022/10/28 06:20:26;;;;;;;3.38;1.85;;;;;;;12.31;100.00;101508.28;6245546;28;20042;-78
2022/10/28 06:23:29;;;;;;;7.40;2.47;;;;;;;12.31;100.00;101516.19;6246766;28;20053;-78
2022/10/28 06:26:30;;;;;;;9.65;3.90;;;;;;;12.29;100.00;101514.53;6247180;28;20053;-78
2022/10/28 06:29:32;;;;;;;4.85;2.55;;;;;;;12.30;100.00;101516.22;6248250;28;20060;-78
2022/10/28 06:32:33;;;;;;;6.10;2.75;;;;;;;12.29;100.00;101515.38;6247179;28;20518;-78
2022/10/28 06:35:34;;;;;;;7.13;2.60;;;;;;;12.30;100.00;101521.50;6247878;28;20148;-78
2022/10/28 06:38:37;;;;;;;7.78;2.92;;;;;;;12.31;100.00;101518.81;6268220;28;20049;-78
2022/10/28 06:41:39;;;;;;;8.63;3.38;;;;;;;12.30;100.00;101518.88;6276792;28;20059;-78
2022/10/28 06:44:40;;;;;;;7.28;2.58;;;;;;;12.29;100.00;101523.28;6249150;28;20056;-78
2022/10/28 06:47:41;;;;;;;4.35;2.15;;;;;;;12.31;100.00;101516.19;6251488;28;20543;-78
2022/10/28 06:50:43;;;;;;;4.05;2.50;;;;;;;12.33;100.00;101526.63;6251702;28;20124;-78
2022/10/28 06:53:48;;;;;;;3.67;2.30;;;;;;;12.34;100.00;101529.19;6251268;28;20052;-78
2022/10/28 06:56:50;;;;;;;8.07;3.03;;;;;;;12.37;100.00;101534.31;6252035;28;20080;-78
2022/10/28 06:59:51;;;;;;;4.63;2.58;;;;;;;12.40;100.00;101528.91;6250656;28;20049;-78
2022/10/28 07:02:54;;;;;;;5.45;2.70;;;;;;;12.42;100.00;101529.69;6250912;28;20053;-78
2022/10/28 07:05:55;;;;;;;6.85;2.60;;;;;;;12.45;100.00;101526.06;6250358;28;20505;-78
2022/10/28 07:08:58;;;;;;;5.93;2.97;;;;;;;12.44;100.00;101535.75;6250932;28;20072;-79
2022/10/28 07:11:59;;;;;;;7.45;2.80;;;;;;;12.47;100.00;101534.72;6250392;28;20045;-78
2022/10/28 07:15:00;;;;;;;5.72;2.88;;;;;;;12.51;100.00;101546.84;6250310;28;20052;-77
2022/10/28 07:18:02;;;;;;;4.65;2.63;;;;;;;12.52;100.00;101531.88;6250460;28;20308;-79
2022/10/28 07:21:03;;;;;;;5.38;2.35;;;;;;;12.52;100.00;101534.50;6254674;28;20053;-79
2022/10/28 07:24:07;;;;;;;6.22;3.53;;;;;;;12.56;100.00;101538.69;6247792;28;20053;-79
2022/10/28 07:27:09;;;;;;;5.45;2.33;;;;;;;12.58;100.00;101537.72;6249216;28;20050;-78
2022/10/28 07:30:12;;;;;;;4.60;2.47;;;;;;;12.61;100.00;101548.09;6244475;28;20049;-77
2022/10/28 07:33:13;;;;;;;8.45;2.55;;;;;;;12.66;100.00;101547.88;6250439;28;20045;-78
2022/10/28 07:36:15;;;;;;;3.45;2.13;;;;;;;12.73;100.00;101546.66;6248565;28;20049;-78
2022/10/28 07:39:17;;;;;;;6.65;3.33;;;;;;;12.77;100.00;101540.28;6248589;28;20046;-79
2022/10/28 07:42:19;;;;;;;4.57;2.00;;;;;;;12.85;100.00;101547.81;6248444;28;20042;-80
2022/10/28 07:45:20;;;;;;;3.50;2.13;;;;;;;12.89;100.00;101546.72;6245486;28;20068;-78
2022/10/28 07:48:22;;;;;;;3.85;2.13;;;;;;;12.94;100.00;101552.63;6242874;28;20056;-77
2022/10/28 07:51:23;;;;;;;4.22;2.00;;;;;;;13.00;100.00;101548.84;6244369;28;20071;-78
2022/10/28 07:54:27;;;;;;;7.30;2.83;;;;;;;13.08;100.00;101554.56;6248701;28;20045;-79
2022/10/28 07:57:29;;;;;;;7.78;2.03;;;;;;;13.15;100.00;101548.03;6245846;28;20046;-79
2022/10/28 08:00:31;;;;;;;8.50;2.53;;;;;;;13.23;100.00;101548.53;6239890;28;20053;-80
2022/10/28 08:03:33;;;;;;;6.57;2.00;;;;;;;13.29;100.00;101566.69;6248157;28;20478;-79
2022/10/28 08:06:35;;;;;;;5.28;2.20;;;;;;;13.33;100.00;101555.03;6248852;28;20048;-80
2022/10/28 08:09:38;;;;;;;3.58;2.30;;;;;;;13.41;100.00;101554.66;6246343;28;20111;-79
2022/10/28 08:12:39;;;;;;;3.83;2.20;;;;;;;13.45;100.00;101558.84;6248406;28;20049;-79
2022/10/28 08:15:41;;;;;;;4.75;2.38;;;;;;;13.51;100.00;101560.31;6248761;28;20433;-79
2022/10/28 08:18:44;;;;;;;4.47;2.00;;;;;;;13.57;100.00;101558.19;6249081;28;20053;-79
2022/10/28 08:21:46;;;;;;;2.80;2.05;;;;;;;13.63;100.00;101555.25;6257441;28;20056;-78
2022/10/28 08:24:49;;;;;;;4.38;1.95;;;;;;;13.67;100.00;101561.19;6246976;28;20045;-80
2022/10/28 08:27:50;;;;;;;5.30;2.35;;;;;;;13.74;100.00;101559.09;6247600;28;20045;-81
2022/10/28 08:30:52;;;;;;;7.18;1.95;;;;;;;13.81;100.00;101563.13;6246886;28;20710;-80
2022/10/28 08:33:53;;;;;;;6.63;2.10;;;;;;;13.90;100.00;101559.97;6248368;28;20053;-81
2022/10/28 08:36:55;;;;;;;4.50;2.70;;;;;;;14.00;100.00;101555.03;6244696;28;20060;-79
2022/10/28 08:39:58;;;;;;;4.82;1.92;;;;;;;14.11;100.00;101564.06;6247541;28;20053;-78
2022/10/28 08:43:05;;;;;;;6.45;2.30;;;;;;;14.27;100.00;101556.16;6248897;28;20049;-79
2022/10/28 08:46:14;;;;;;;3.97;1.83;;;;;;;14.41;100.00;101550.94;6247466;28;20046;-79
2022/10/28 08:49:18;;;;;;;5.68;2.22;;;;;;;14.53;100.00;101552.06;6248666;28;20041;-75
2022/10/28 08:52:28;;;;;;;5.30;2.25;;;;;;;14.60;100.00;101549.94;6244602;28;20049;-78
2022/10/28 08:55:35;;;;;;;3.53;2.30;;;;;;;14.73;100.00;101545.63;6248412;28;20049;-77
2022/10/28 08:58:39;;;;;;;2.95;1.75;;;;;;;14.83;100.00;101549.44;6248536;28;20500;-78
2022/10/28 09:01:46;;;;;;;5.43;2.22;;;;;;;14.96;100.00;101550.44;6247970;28;20056;-79
2022/10/28 09:04:52;;;;;;;4.75;2.10;;;;;;;15.10;100.00;101546.97;6247805;28;20056;-79
2022/10/28 09:07:56;;;;;;;4.68;2.20;;;;;;;15.21;100.00;101544.56;6248233;28;20056;-79
2022/10/28 09:11:07;;;;;;;8.18;2.00;;;;;;;15.35;100.00;101550.78;6247192;28;20523;-79
2022/10/28 09:14:21;;;;;;;7.18;1.95;;;;;;;15.49;100.00;101556.13;6247397;28;20055;-79
2022/10/28 09:17:33;;;;;;;8.90;2.00;;;;;;;15.59;100.00;101551.09;6247805;28;20057;-77
2022/10/28 09:20:47;;;;;;;6.15;1.77;;;;;;;15.80;100.00;101557.75;6264007;28;20420;-77
2022/10/28 09:23:56;;;;;;;5.63;2.53;;;;;;;15.98;100.00;101553.09;6293274;23;20044;-73
2022/10/28 09:27:10;;;;;;;2.95;1.90;;;;;;;16.04;100.00;101550.06;6271994;28;20048;-73
2022/10/28 09:30:24;;;;;;;6.88;2.25;;;;;;;16.11;100.00;101556.66;6294800;28;20041;-73
2022/10/28 09:33:42;;;;;;;5.40;1.95;;;;;;;16.26;100.00;101544.25;6275798;28;20053;-73
2022/10/28 09:36:48;;;;;;;5.50;1.90;;;;;;;16.42;100.00;101539.63;6271542;28;20052;-73
2022/10/28 09:39:52;;;;;;;9.75;1.60;;;;;;;16.59;100.00;101540.34;6271432;28;20052;-73
2022/10/28 09:43:01;;;;;;;4.43;1.73;;;;;;;16.79;100.00;101533.75;6271424;28;20426;-72
2022/10/28 09:46:08;;;;;;;4.72;1.80;;;;;;;16.99;100.00;101527.94;6271493;28;20060;-73
2022/10/28 09:49:15;;;;;;;4.40;1.65;;;;;;;17.13;100.00;101541.13;6271301;28;20064;-69
2022/10/28 09:52:20;;;;;;;4.93;1.77;;;;;;;17.20;100.00;101531.78;6271071;28;20065;-70
2022/10/28 09:55:23;;;;;;;4.10;1.88;;;;;;;17.26;100.00;101533.19;6261769;28;20049;-71
2022/10/28 09:58:26;;;;;;;2.38;1.23;;;;;;;17.35;100.00;101535.22;6246509;28;20394;-71
2022/10/28 10:01:30;;;;;;;3.13;1.60;;;;;;;17.44;100.00;101531.03;6246043;28;20056;-70
2022/10/28 10:04:32;;;;;;;6.57;2.03;;;;;;;17.48;100.00;101533.38;6246077;28;20413;-70
2022/10/28 10:07:37;;;;;;;7.95;1.95;;;;;;;17.47;100.00;101528.16;6246345;28;20050;-70
2022/10/28 10:10:44;;;;;;;5.75;1.80;;;;;;;17.62;100.00;101527.13;6248617;28;20057;-71
2022/10/28 10:13:47;;;;;;;15.32;1.65;;;;;;;17.73;100.00;101513.94;6246068;28;20050;-71
2022/10/28 10:16:53;;;;;;;4.00;1.70;;;;;;;17.86;100.00;101518.38;6244508;28;20049;-70
2022/10/28 10:20:00;;;;;;;5.28;1.55;;;;;;;17.90;100.00;101515.41;6250720;28;20042;-71
2022/10/28 10:23:02;;;;;;;6.03;1.83;;;;;;;18.08;100.00;101515.88;6248757;28;20056;-70
2022/10/28 10:26:05;;;;;;;6.28;1.77;;;;;;;18.16;100.00;101515.28;6250786;28;20060;-70
2022/10/28 10:29:12;;;;;;;6.57;1.55;;;;;;;18.32;100.00;101515.03;6251333;28;20046;-70
2022/10/28 10:32:17;;;;;;;7.10;1.77;;;;;;;18.45;100.00;101511.34;6254017;28;20424;-71
2022/10/28 10:35:23;;;;;;;5.25;1.58;;;;;;;18.52;100.00;101509.06;6258515;28;20048;-73
2022/10/28 10:38:27;;;;;;;4.53;1.45;;;;;;;18.58;100.00;101510.44;6275681;28;20049;-70
2022/10/28 10:41:36;;;;;;;5.50;1.83;;;;;;;18.63;100.00;101505.63;6249126;28;20052;-71
2022/10/28 10:44:41;;;;;;;3.85;1.20;;;;;;;18.63;100.00;101502.97;6250022;28;20049;-71
2022/10/28 10:47:42;;;;;;;5.70;1.80;;;;;;;18.72;100.00;101508.47;6246291;28;20061;-70
2022/10/28 10:50:46;;;;;;;2.42;1.88;;;;;;;18.85;100.00;101507.53;6249032;28;20056;-70
2022/10/28 10:53:49;;;;;;;3.88;1.27;;;;;;;18.98;100.00;101519.78;6249166;28;20420;-70
2022/10/28 10:56:51;;;;;;;3.97;2.05;;;;;;;19.06;100.00;101516.53;6250440;28;20520;-70
2022/10/28 10:59:56;;;;;;;2.53;1.50;;;;;;;19.16;100.00;101512.19;6247948;28;20041;-69
2022/10/28 11:02:58;;;;;;;5.00;1.95;;;;;;;19.27;100.00;101506.91;6258357;28;20052;-70
2022/10/28 11:06:02;;;;;;;6.53;1.90;;;;;;;19.59;99.37;101508.00;6274274;28;20049;-71
2022/10/28 11:09:05;;;;;;;6.70;2.00;;;;;;;19.72;99.06;101506.94;6258911;28;20045;-70
2022/10/28 11:12:15;;;;;;;2.50;1.20;;;;;;;19.83;96.19;101506.06;6249517;28;20048;-71
2022/10/28 11:15:24;;;;;;;4.20;1.40;;;;;;;19.88;96.59;101489.69;6249607;28;20041;-71
2022/10/28 11:18:28;;;;;;;10.18;1.65;;;;;;;19.88;97.29;101485.22;6250054;28;20045;-70
2022/10/28 11:21:49;;;;;;;8.77;1.50;;;;;;;20.07;93.74;101492.56;6248679;28;20057;-71
2022/10/28 11:25:11;;;;;;;4.32;1.27;;;;;;;20.05;91.70;101496.34;6262234;28;20064;-70
2022/10/28 11:28:32;;;;;;;5.28;1.70;;;;;;;20.09;92.71;101495.13;6274582;28;20500;-71
2022/10/28 11:31:48;;;;;;;2.30;1.25;;;;;;;20.20;91.46;101481.72;6268950;28;20049;-70
2022/10/28 11:35:03;;;;;;;3.95;1.17;;;;;;;20.26;89.95;101484.75;6249309;28;20494;-71
2022/10/28 11:38:18;;;;;;;6.03;1.95;;;;;;;20.28;91.59;101481.97;6270517;28;20060;-70
2022/10/28 11:41:29;;;;;;;4.75;1.65;;;;;;;20.39;92.01;101476.56;6273608;28;20622;-71
2022/10/28 11:44:45;;;;;;;6.85;2.17;;;;;;;20.39;91.21;101468.56;6272748;28;20512;-70
2022/10/28 11:48:13;;;;;;;3.38;1.63;;;;;;;20.51;90.47;101470.25;6249380;28;20060;-70
2022/10/28 11:51:29;;;;;;;4.63;1.50;;;;;;;20.33;93.63;101462.88;6224358;28;20049;-70
2022/10/28 11:54:45;;;;;;;8.77;2.00;;;;;;;20.21;91.55;101459.41;6257212;28;20072;-71
2022/10/28 11:57:59;;;;;;;1.33;1.13;;;;;;;20.26;92.50;101462.56;6249141;28;20050;-69
2022/10/28 12:01:15;;;;;;;6.53;1.50;;;;;;;20.41;91.12;101455.94;6246973;28;20556;-70
2022/10/28 12:04:31;;;;;;;7.07;1.73;;;;;;;20.65;89.16;101457.56;6244358;28;20056;-69
2022/10/28 12:07:48;;;;;;;5.07;1.60;;;;;;;20.71;92.26;101457.03;6247412;28;20057;-70
2022/10/28 12:11:06;;;;;;;5.30;2.15;;;;;;;20.87;87.84;101460.09;6245903;28;20052;-70
2022/10/28 12:14:20;;;;;;;2.70;1.27;;;;;;;20.89;89.88;101457.28;6242807;28;20080;-71
2022/10/28 12:17:28;;;;;;;4.43;1.88;;;;;;;20.99;88.44;101450.19;6245482;28;20099;-71
2022/10/28 12:20:34;;;;;;;6.32;1.80;;;;;;;21.07;89.33;101453.03;6244867;28;20045;-71
2022/10/28 12:23:38;;;;;;;2.33;1.20;;;;;;;21.08;89.03;101448.56;6240038;28;20053;-70
2022/10/28 12:26:43;;;;;;;6.75;1.52;;;;;;;21.25;87.73;101454.09;6248374;28;20053;-69
2022/10/28 12:29:48;;;;;;;10.00;1.73;;;;;;;21.26;88.00;101458.50;6247993;28;20049;-70
2022/10/28 12:32:54;;;;;;;4.53;1.77;;;;;;;21.42;85.89;101455.34;6247801;28;20072;-69
2022/10/28 12:36:16;;;;;;;4.38;1.35;;;;;;;21.31;88.30;101454.56;6245911;28;20056;-68
2022/10/28 12:39:22;;;;;;;2.72;1.05;;;;;;;21.24;88.01;101448.91;6245422;28;20050;-69
2022/10/28 12:42:31;;;;;;;2.80;1.23;;;;;;;21.16;89.79;101444.22;6262472;28;20056;-74
2022/10/28 12:45:33;;;;;;;7.22;1.73;;;;;;;21.15;88.82;101439.00;6272460;28;20049;-70
2022/10/28 12:48:41;;;;;;;5.93;1.45;;;;;;;21.26;87.24;101426.41;6271712;28;20053;-70
2022/10/28 12:51:44;;;;;;;6.57;1.48;;;;;;;21.22;89.17;101419.63;6270791;28;20141;-69
2022/10/28 12:54:55;;;;;;;3.95;1.23;;;;;;;21.20;89.64;101428.75;6270593;28;20077;-70
2022/10/28 12:58:01;;;;;;;5.15;1.20;;;;;;;21.14;91.05;101429.28;6271120;28;20052;-69
2022/10/28 13:01:07;;;;;;;5.50;2.45;;;;;;;21.15;91.01;101425.63;6271519;28;20055;-68
2022/10/28 13:04:11;;;;;;;7.80;2.08;;;;;;;21.11;90.43;101421.53;6271979;28;20056;-69
2022/10/28 13:07:30;;;;;;;3.30;1.50;;;;;;;21.03;89.63;101419.56;6272123;28;20072;-70
2022/10/28 13:10:38;;;;;;;6.18;1.88;;;;;;;20.93;88.89;101419.47;6271937;28;20053;-69
2022/10/28 13:13:51;;;;;;;6.75;1.95;;;;;;;20.91;88.54;101418.78;6271953;28;20052;-70
2022/10/28 13:17:08;;;;;;;6.07;1.20;;;;;;;20.89;86.85;101428.75;6272148;28;20049;-69
2022/10/28 13:20:22;;;;;;;4.63;1.75;;;;;;;20.84;87.44;101428.28;6271688;28;20041;-69
2022/10/28 13:23:34;;;;;;;7.95;2.35;;;;;;;20.78;88.48;101426.16;6271853;28;20049;-70
2022/10/28 13:26:40;;;;;;;10.82;2.53;;;;;;;20.74;89.46;101419.38;6262500;28;20052;-69
2022/10/28 13:29:43;;;;;;;4.20;1.45;;;;;;;20.73;88.17;101407.84;6263323;28;20087;-70
2022/10/28 13:32:45;;;;;;;13.38;2.17;;;;;;;20.59;91.06;101413.53;6262922;28;20060;-70
2022/10/28 13:35:47;;;;;;;8.80;1.63;;;;;;;20.54;91.34;101402.38;6270795;28;20045;-69
2022/10/28 13:38:55;;;;;;;4.40;1.20;;;;;;;20.47;92.56;101417.19;6263378;28;20072;-72
2022/10/28 13:42:45;;;;;;;3.50;1.60;;;;;;;20.46;91.78;101407.50;6266177;28;20056;-71
2022/10/28 13:45:49;;;;;;;9.15;2.00;;;;;;;20.47;90.14;101404.72;6270907;28;20512;-69
2022/10/28 13:48:50;;;;;;;13.18;1.92;;;;;;;20.51;89.43;101398.13;6271503;28;20505;-69
2022/10/28 13:51:59;;;;;;;2.50;1.50;;;;;;;20.51;88.58;101395.47;6270624;28;20044;-70
2022/10/28 13:55:21;;;;;;;5.97;1.40;;;;;;;20.45;90.64;101395.97;6270650;28;20049;-69
2022/10/28 13:58:25;;;;;;;4.10;1.42;;;;;;;20.36;92.09;101401.25;6271235;28;20049;-70
2022/10/28 14:01:38;;;;;;;2.70;1.08;;;;;;;20.26;93.08;101398.50;6271083;28;20386;-70
2022/10/28 14:04:42;;;;;;;3.20;1.30;;;;;;;20.19;94.84;101394.63;6246045;28;20054;-69
2022/10/28 14:07:53;;;;;;;1.85;1.33;;;;;;;20.18;94.22;101392.94;6246708;28;20053;-70
2022/10/28 14:11:07;;;;;;;2.97;1.55;;;;;;;20.22;92.99;101394.41;6263749;28;20076;-69
2022/10/28 14:14:16;;;;;;;4.65;1.95;;;;;;;20.14;95.23;101392.34;6269085;28;20409;-69
2022/10/28 14:17:22;;;;;;;4.07;1.85;;;;;;;20.17;92.61;101381.44;6267219;28;20052;-69